Terminal Aerodrome Forecast
Issued by NWS Grand Forks, ND

Home | Current Version | Previous Version | Text Only | Print | Product List | Glossary On
Versions: 1 2 3 4 5 6 7 8 9 10 11 12 13 14 15 16 17 18 19 20
000
FTUS43 KFGF 080529
TAFFAR
TAF
KFAR 080529Z 0806/0906 34024G32KT 3/4SM -SN BLSN OVC015
     FM080800 34023G28KT 4SM -SN BLSN OVC015
     FM081500 34024G31KT P6SM BKN030
     FM090000 34012KT P6SM SCT050=

USA.gov is the U.S. government's official web portal to all federal, state and local government web resources and services.